sensor_id;sensor_type;location;lat;lon;timestamp;pressure;altitude;pressure_sealevel;temperature;humidity
1029;BME280;503;48.120;11.488;2022-08-01T00:01:35;95394.03;;;25.35;44.49
1029;BME280;503;48.120;11.488;2022-08-01T00:04:01;95397.13;;;25.23;44.67
1029;BME280;503;48.120;11.488;2022-08-01T00:06:27;95391.72;;;25.20;45.61
1029;BME280;503;48.120;11.488;2022-08-01T00:08:52;95331.50;;;24.78;44.89
1029;BME280;503;48.120;11.488;2022-08-01T00:11:17;95384.34;;;25.09;44.23
1029;BME280;503;48.120;11.488;2022-08-01T00:13:43;95397.56;;;24.72;44.78
1029;BME280;503;48.120;11.488;2022-08-01T00:16:08;95379.28;;;24.79;44.79
1029;BME280;503;48.120;11.488;2022-08-01T00:18:34;95406.88;;;24.81;44.77
1029;BME280;503;48.120;11.488;2022-08-01T00:21:01;95342.00;;;24.55;44.78
1029;BME280;503;48.120;11.488;2022-08-01T00:23:26;95368.78;;;24.46;45.44
1029;BME280;503;48.120;11.488;2022-08-01T00:25:52;95395.94;;;24.28;46.11
1029;BME280;503;48.120;11.488;2022-08-01T00:28:17;95374.22;;;24.38;45.58
1029;BME280;503;48.120;11.488;2022-08-01T00:30:42;95398.72;;;24.60;45.38
1029;BME280;503;48.120;11.488;2022-08-01T00:33:07;95410.38;;;24.57;45.13
1029;BME280;503;48.120;11.488;2022-08-01T00:35:33;95391.31;;;24.39;45.81
1029;BME280;503;48.120;11.488;2022-08-01T00:37:58;95411.53;;;24.49;45.35
1029;BME280;503;48.120;11.488;2022-08-01T00:40:24;95414.94;;;24.17;45.64
1029;BME280;503;48.120;11.488;2022-08-01T00:42:49;95403.97;;;23.89;46.81
1029;BME280;503;48.120;11.488;2022-08-01T00:45:14;95413.03;;;24.21;46.32
1029;BME280;503;48.120;11.488;2022-08-01T00:47:40;95396.69;;;24.07;46.67
1029;BME280;503;48.120;11.488;2022-08-01T00:50:05;95422.22;;;23.88;46.65
1029;BME280;503;48.120;11.488;2022-08-01T00:52:32;95377.91;;;23.70;46.91
1029;BME280;503;48.120;11.488;2022-08-01T00:54:57;95406.78;;;24.06;46.25
1029;BME280;503;48.120;11.488;2022-08-01T00:57:22;95405.88;;;23.70;46.97
1029;BME280;503;48.120;11.488;2022-08-01T00:59:48;95390.34;;;23.74;46.56
1029;BME280;503;48.120;11.488;2022-08-01T01:02:13;95422.56;;;23.72;46.85
1029;BME280;503;48.120;11.488;2022-08-01T01:04:38;95389.13;;;23.61;47.27
1029;BME280;503;48.120;11.488;2022-08-01T01:07:25;95410.19;;;23.85;46.73
1029;BME280;503;48.120;11.488;2022-08-01T01:10:10;95404.28;;;23.69;47.31
1029;BME280;503;48.120;11.488;2022-08-01T01:12:44;95411.19;;;23.59;47.78
1029;BME280;503;48.120;11.488;2022-08-01T01:15:31;95418.78;;;24.09;46.45
1029;BME280;503;48.120;11.488;2022-08-01T01:18:04;95417.09;;;23.65;47.45
1029;BME280;503;48.120;11.488;2022-08-01T01:20:37;95405.53;;;23.82;46.45
1029;BME280;503;48.120;11.488;2022-08-01T01:23:11;95401.50;;;23.58;47.40
1029;BME280;503;48.120;11.488;2022-08-01T01:28:15;95418.28;;;23.75;47.01
1029;BME280;503;48.120;11.488;2022-08-01T01:30:44;95420.22;;;23.74;47.02
1029;BME280;503;48.120;11.488;2022-08-01T01:33:12;95415.19;;;23.73;46.74
1029;BME280;503;48.120;11.488;2022-08-01T01:35:44;95421.03;;;23.78;46.70
1029;BME280;503;48.120;11.488;2022-08-01T01:38:18;95413.03;;;23.38;48.25
1029;BME280;503;48.120;11.488;2022-08-01T01:40:45;95425.66;;;23.74;46.94
1029;BME280;503;48.120;11.488;2022-08-01T01:43:12;95404.59;;;23.57;47.04
1029;BME280;503;48.120;11.488;2022-08-01T01:45:39;95408.13;;;23.61;47.01
1029;BME280;503;48.120;11.488;2022-08-01T01:48:06;95399.94;;;23.54;47.03
1029;BME280;503;48.120;11.488;2022-08-01T01:50:33;95425.28;;;23.72;47.14
1029;BME280;503;48.120;11.488;2022-08-01T01:53:01;95423.78;;;23.89;46.70
1029;BME280;503;48.120;11.488;2022-08-01T01:55:28;95413.63;;;23.72;46.92
1029;BME280;503;48.120;11.488;2022-08-01T01:57:55;95411.34;;;23.84;46.56
1029;BME280;503;48.120;11.488;2022-08-01T02:00:23;95407.09;;;23.87;46.78
1029;BME280;503;48.120;11.488;2022-08-01T02:02:50;95412.97;;;24.07;45.82
1029;BME280;503;48.120;11.488;2022-08-01T02:05:18;95411.06;;;24.11;45.84
1029;BME280;503;48.120;11.488;2022-08-01T02:07:44;95433.16;;;24.06;46.23
1029;BME280;503;48.120;11.488;2022-08-01T02:10:11;95420.31;;;23.96;46.34
1029;BME280;503;48.120;11.488;2022-08-01T02:12:39;95422.28;;;24.02;45.79
1029;BME280;503;48.120;11.488;2022-08-01T02:15:08;95408.34;;;24.25;45.23
1029;BME280;503;48.120;11.488;2022-08-01T02:17:37;95441.19;;;23.74;46.72
1029;BME280;503;48.120;11.488;2022-08-01T02:20:05;95428.81;;;23.83;46.51
1029;BME280;503;48.120;11.488;2022-08-01T02:22:34;95405.19;;;23.98;45.63
1029;BME280;503;48.120;11.488;2022-08-01T02:25:27;95433.59;;;24.29;45.09
1029;BME280;503;48.120;11.488;2022-08-01T02:28:04;95393.66;;;23.39;46.52
1029;BME280;503;48.120;11.488;2022-08-01T02:30:33;95427.28;;;23.86;45.72
1029;BME280;503;48.120;11.488;2022-08-01T02:33:06;95415.56;;;23.71;45.80
1029;BME280;503;48.120;11.488;2022-08-01T02:35:35;95426.03;;;23.66;46.37
1029;BME280;503;48.120;11.488;2022-08-01T02:38:05;95416.78;;;23.84;46.00
1029;BME280;503;48.120;11.488;2022-08-01T02:40:32;95429.94;;;23.72;46.20
1029;BME280;503;48.120;11.488;2022-08-01T02:43:00;95420.91;;;23.57;46.16
1029;BME280;503;48.120;11.488;2022-08-01T02:45:27;95414.88;;;23.92;45.85
1029;BME280;503;48.120;11.488;2022-08-01T02:47:57;95432.00;;;24.07;45.38
1029;BME280;503;48.120;11.488;2022-08-01T02:50:26;95427.25;;;23.82;45.73
1029;BME280;503;48.120;11.488;2022-08-01T02:52:52;95418.34;;;23.85;45.25
1029;BME280;503;48.120;11.488;2022-08-01T02:55:20;95379.66;;;23.33;45.91
1029;BME280;503;48.120;11.488;2022-08-01T02:57:49;95434.66;;;23.85;45.25
1029;BME280;503;48.120;11.488;2022-08-01T03:00:16;95447.06;;;23.90;45.76
1029;BME280;503;48.120;11.488;2022-08-01T03:02:43;95448.13;;;23.68;46.33
1029;BME280;503;48.120;11.488;2022-08-01T03:05:10;95437.75;;;23.88;45.33
1029;BME280;503;48.120;11.488;2022-08-01T03:07:38;95449.00;;;23.90;45.58
1029;BME280;503;48.120;11.488;2022-08-01T03:10:04;95453.63;;;23.78;45.81
1029;BME280;503;48.120;11.488;2022-08-01T03:12:32;95450.50;;;23.80;46.00
1029;BME280;503;48.120;11.488;2022-08-01T03:14:59;95440.72;;;23.65;45.95
1029;BME280;503;48.120;11.488;2022-08-01T03:17:27;95453.66;;;23.85;45.89
1029;BME280;503;48.120;11.488;2022-08-01T03:19:53;95438.34;;;23.59;46.63
1029;BME280;503;48.120;11.488;2022-08-01T03:22:21;95421.22;;;23.48;46.42
1029;BME280;503;48.120;11.488;2022-08-01T03:24:49;95447.00;;;23.72;46.16
1029;BME280;503;48.120;11.488;2022-08-01T03:27:18;95451.31;;;23.80;46.13
1029;BME280;503;48.120;11.488;2022-08-01T03:29:44;95434.00;;;23.41;46.32
1029;BME280;503;48.120;11.488;2022-08-01T03:32:11;95437.09;;;23.43;46.81
1029;BME280;503;48.120;11.488;2022-08-01T03:34:37;95449.94;;;23.46;46.70
1029;BME280;503;48.120;11.488;2022-08-01T03:37:10;95448.38;;;22.90;47.87
1029;BME280;503;48.120;11.488;2022-08-01T03:39:44;95445.13;;;23.21;47.17
1029;BME280;503;48.120;11.488;2022-08-01T03:42:14;95438.44;;;23.08;47.48
1029;BME280;503;48.120;11.488;2022-08-01T03:44:41;95388.38;;;22.50;47.93
1029;BME280;503;48.120;11.488;2022-08-01T03:47:08;95462.06;;;23.04;47.81
1029;BME280;503;48.120;11.488;2022-08-01T03:49:41;95450.38;;;22.96;48.01
1029;BME280;503;48.120;11.488;2022-08-01T03:52:09;95465.91;;;22.99;48.29
1029;BME280;503;48.120;11.488;2022-08-01T03:54:38;95428.00;;;22.66;47.92
1029;BME280;503;48.120;11.488;2022-08-01T03:57:05;95466.38;;;22.30;49.54
1029;BME280;503;48.120;11.488;2022-08-01T03:59:31;95456.75;;;22.37;49.15
1029;BME280;503;48.120;11.488;2022-08-01T04:01:59;95412.66;;;22.40;48.43
1029;BME280;503;48.120;11.488;2022-08-01T04:04:25;95482.13;;;22.96;48.61
1029;BME280;503;48.120;11.488;2022-08-01T04:06:51;95432.44;;;22.06;49.21
1029;BME280;503;48.120;11.488;2022-08-01T04:09:19;95413.63;;;22.17;49.06
1029;BME280;503;48.120;11.488;2022-08-01T04:11:46;95468.41;;;22.81;47.99
1029;BME280;503;48.120;11.488;2022-08-01T04:14:12;95435.06;;;22.74;47.92
1029;BME280;503;48.120;11.488;2022-08-01T04:16:37;95424.16;;;22.70;47.70
1029;BME280;503;48.120;11.488;2022-08-01T04:19:04;95492.44;;;23.24;47.59
1029;BME280;503;48.120;11.488;2022-08-01T04:21:34;95470.94;;;22.60;48.15
1029;BME280;503;48.120;11.488;2022-08-01T04:24:03;95495.34;;;23.01;47.74
1029;BME280;503;48.120;11.488;2022-08-01T04:26:31;95469.19;;;22.78;48.02
1029;BME280;503;48.120;11.488;2022-08-01T04:29:00;95437.44;;;22.42;48.10
1029;BME280;503;48.120;11.488;2022-08-01T04:31:28;95493.75;;;22.55;48.58
1029;BME280;503;48.120;11.488;2022-08-01T04:33:54;95492.34;;;22.72;48.20
1029;BME280;503;48.120;11.488;2022-08-01T04:36:23;95485.00;;;23.17;47.00
1029;BME280;503;48.120;11.488;2022-08-01T04:38:52;95473.53;;;23.34;46.37
1029;BME280;503;48.120;11.488;2022-08-01T04:41:20;95443.59;;;23.27;46.91
1029;BME280;503;48.120;11.488;2022-08-01T04:43:47;95446.88;;;22.96;47.01
1029;BME280;503;48.120;11.488;2022-08-01T04:46:13;95508.63;;;23.65;46.43
1029;BME280;503;48.120;11.488;2022-08-01T04:48:38;95477.31;;;23.23;46.31
1029;BME280;503;48.120;11.488;2022-08-01T04:51:11;95504.03;;;23.72;46.32
1029;BME280;503;48.120;11.488;2022-08-01T04:53:37;95384.97;;;23.12;45.50
1029;BME280;503;48.120;11.488;2022-08-01T04:56:02;95514.34;;;24.18;45.19
1029;BME280;503;48.120;11.488;2022-08-01T04:58:28;95475.88;;;24.12;44.93
1029;BME280;503;48.120;11.488;2022-08-01T05:00:53;95514.25;;;23.97;45.11
1029;BME280;503;48.120;11.488;2022-08-01T05:03:18;95472.41;;;24.12;45.08
1029;BME280;503;48.120;11.488;2022-08-01T05:05:44;95506.94;;;24.15;44.73
1029;BME280;503;48.120;11.488;2022-08-01T05:08:09;95509.00;;;24.40;44.11
1029;BME280;503;48.120;11.488;2022-08-01T05:10:35;95481.47;;;24.66;43.90
1029;BME280;503;48.120;11.488;2022-08-01T05:13:00;95511.03;;;24.93;43.24
1029;BME280;503;48.120;11.488;2022-08-01T05:15:26;95524.66;;;24.93;43.18
1029;BME280;503;48.120;11.488;2022-08-01T05:17:52;95517.97;;;24.47;44.12
1029;BME280;503;48.120;11.488;2022-08-01T05:20:17;95505.84;;;24.34;44.44
1029;BME280;503;48.120;11.488;2022-08-01T05:22:42;95523.13;;;25.02;43.39
1029;BME280;503;48.120;11.488;2022-08-01T05:25:08;95508.00;;;25.15;42.96
1029;BME280;503;48.120;11.488;2022-08-01T05:27:33;95479.19;;;25.00;42.60
1029;BME280;503;48.120;11.488;2022-08-01T05:30:08;95530.16;;;25.21;42.44
1029;BME280;503;48.120;11.488;2022-08-01T05:32:33;95520.78;;;25.58;41.92
1029;BME280;503;48.120;11.488;2022-08-01T05:34:59;95540.66;;;25.12;42.43
1029;BME280;503;48.120;11.488;2022-08-01T05:37:24;95533.28;;;25.09;43.23
1029;BME280;503;48.120;11.488;2022-08-01T05:39:50;95535.97;;;25.12;42.93
1029;BME280;503;48.120;11.488;2022-08-01T05:42:15;95530.47;;;24.77;43.60
1029;BME280;503;48.120;11.488;2022-08-01T05:44:41;95517.50;;;24.34;44.34
1029;BME280;503;48.120;11.488;2022-08-01T05:47:06;95535.84;;;24.48;44.04
1029;BME280;503;48.120;11.488;2022-08-01T05:49:31;95524.53;;;24.35;44.43
1029;BME280;503;48.120;11.488;2022-08-01T05:51:56;95542.09;;;23.79;45.81
1029;BME280;503;48.120;11.488;2022-08-01T05:54:22;95524.13;;;23.60;45.72
1029;BME280;503;48.120;11.488;2022-08-01T05:56:47;95511.94;;;23.99;45.07
1029;BME280;503;48.120;11.488;2022-08-01T05:59:12;95512.16;;;23.17;46.92
1029;BME280;503;48.120;11.488;2022-08-01T06:01:38;95512.31;;;23.35;46.55
1029;BME280;503;48.120;11.488;2022-08-01T06:04:03;95531.81;;;23.51;46.61
1029;BME280;503;48.120;11.488;2022-08-01T06:06:28;95521.91;;;23.25;47.25
1029;BME280;503;48.120;11.488;2022-08-01T06:08:54;95532.28;;;23.13;47.51
1029;BME280;503;48.120;11.488;2022-08-01T06:11:19;95531.66;;;23.33;46.69
1029;BME280;503;48.120;11.488;2022-08-01T06:13:46;95505.47;;;23.07;47.07
1029;BME280;503;48.120;11.488;2022-08-01T06:16:11;95552.13;;;23.72;46.10
1029;BME280;503;48.120;11.488;2022-08-01T06:18:37;95553.44;;;23.41;46.80
1029;BME280;503;48.120;11.488;2022-08-01T06:21:03;95545.66;;;23.35;46.06
1029;BME280;503;48.120;11.488;2022-08-01T06:23:28;95525.38;;;23.19;46.75
1029;BME280;503;48.120;11.488;2022-08-01T06:25:54;95498.69;;;22.83;46.84
1029;BME280;503;48.120;11.488;2022-08-01T06:28:23;95554.59;;;23.40;46.58
1029;BME280;503;48.120;11.488;2022-08-01T06:30:48;95488.31;;;22.93;46.94
1029;BME280;503;48.120;11.488;2022-08-01T06:33:14;95514.06;;;23.65;45.60
1029;BME280;503;48.120;11.488;2022-08-01T06:35:39;95497.75;;;22.69;47.03
1029;BME280;503;48.120;11.488;2022-08-01T06:38:04;95549.56;;;23.42;45.97
1029;BME280;503;48.120;11.488;2022-08-01T06:40:30;95528.59;;;23.35;45.96
1029;BME280;503;48.120;11.488;2022-08-01T06:42:55;95554.53;;;23.32;46.67
1029;BME280;503;48.120;11.488;2022-08-01T06:45:20;95568.63;;;23.45;46.61
1029;BME280;503;48.120;11.488;2022-08-01T06:47:51;95542.84;;;23.25;46.87
1029;BME280;503;48.120;11.488;2022-08-01T06:50:17;95521.31;;;22.98;47.03
1029;BME280;503;48.120;11.488;2022-08-01T06:52:42;95566.53;;;24.42;45.00
1029;BME280;503;48.120;11.488;2022-08-01T06:55:08;95552.13;;;24.37;44.21
1029;BME280;503;48.120;11.488;2022-08-01T06:57:34;95472.72;;;23.30;45.77
1029;BME280;503;48.120;11.488;2022-08-01T07:00:06;95570.94;;;23.98;46.11
1029;BME280;503;48.120;11.488;2022-08-01T07:02:37;95545.47;;;24.35;44.66
1029;BME280;503;48.120;11.488;2022-08-01T07:05:03;95486.75;;;23.43;45.95
1029;BME280;503;48.120;11.488;2022-08-01T07:07:29;95571.28;;;23.93;45.95
1029;BME280;503;48.120;11.488;2022-08-01T07:09:54;95522.00;;;23.95;45.81
1029;BME280;503;48.120;11.488;2022-08-01T07:12:20;95500.41;;;24.27;44.81
1029;BME280;503;48.120;11.488;2022-08-01T07:14:45;95526.09;;;24.36;44.46
1029;BME280;503;48.120;11.488;2022-08-01T07:17:11;95536.25;;;24.47;44.57
1029;BME280;503;48.120;11.488;2022-08-01T07:19:36;95561.22;;;24.95;44.59
1029;BME280;503;48.120;11.488;2022-08-01T07:22:02;95502.13;;;24.88;43.70
1029;BME280;503;48.120;11.488;2022-08-01T07:24:27;95549.22;;;25.18;43.89
1029;BME280;503;48.120;11.488;2022-08-01T07:26:54;95544.16;;;25.30;43.05
1029;BME280;503;48.120;11.488;2022-08-01T07:29:26;95554.28;;;25.40;42.73
1029;BME280;503;48.120;11.488;2022-08-01T07:31:53;95537.91;;;25.05;43.57
1029;BME280;503;48.120;11.488;2022-08-01T07:34:19;95543.38;;;25.12;43.95
1029;BME280;503;48.120;11.488;2022-08-01T07:36:44;95548.38;;;24.92;44.41
1029;BME280;503;48.120;11.488;2022-08-01T07:39:09;95534.06;;;25.24;43.56
1029;BME280;503;48.120;11.488;2022-08-01T07:41:35;95535.22;;;25.40;43.64
1029;BME280;503;48.120;11.488;2022-08-01T07:44:00;95559.91;;;24.43;44.96
1029;BME280;503;48.120;11.488;2022-08-01T07:46:25;95538.22;;;24.64;44.94
1029;BME280;503;48.120;11.488;2022-08-01T07:48:51;95532.22;;;24.23;45.48
1029;BME280;503;48.120;11.488;2022-08-01T07:51:16;95528.56;;;24.95;44.97
1029;BME280;503;48.120;11.488;2022-08-01T07:53:41;95465.97;;;24.84;43.65
1029;BME280;503;48.120;11.488;2022-08-01T07:56:07;95550.75;;;25.11;44.64
1029;BME280;503;48.120;11.488;2022-08-01T07:58:33;95513.41;;;24.83;44.46
1029;BME280;503;48.120;11.488;2022-08-01T08:00:59;95548.72;;;24.76;44.64
1029;BME280;503;48.120;11.488;2022-08-01T08:03:25;95555.69;;;24.59;45.40
1029;BME280;503;48.120;11.488;2022-08-01T08:05:51;95537.78;;;24.51;45.64
1029;BME280;503;48.120;11.488;2022-08-01T08:08:16;95538.56;;;24.55;45.90
1029;BME280;503;48.120;11.488;2022-08-01T08:10:43;95537.16;;;25.40;43.95
1029;BME280;503;48.120;11.488;2022-08-01T08:13:09;95512.41;;;24.26;45.12
1029;BME280;503;48.120;11.488;2022-08-01T08:15:34;95548.34;;;24.67;45.47
1029;BME280;503;48.120;11.488;2022-08-01T08:18:00;95541.28;;;24.55;45.39
1029;BME280;503;48.120;11.488;2022-08-01T08:20:25;95558.13;;;24.93;46.06
1029;BME280;503;48.120;11.488;2022-08-01T08:22:55;95496.66;;;24.71;44.73
1029;BME280;503;48.120;11.488;2022-08-01T08:25:23;95530.13;;;24.89;44.78
1029;BME280;503;48.120;11.488;2022-08-01T08:27:48;95531.66;;;24.90;45.44
1029;BME280;503;48.120;11.488;2022-08-01T08:30:14;95457.81;;;25.06;43.90
1029;BME280;503;48.120;11.488;2022-08-01T08:32:40;95551.56;;;25.55;43.40
1029;BME280;503;48.120;11.488;2022-08-01T08:35:06;95553.88;;;25.17;44.52
1029;BME280;503;48.120;11.488;2022-08-01T08:37:33;95524.72;;;25.28;43.87
1029;BME280;503;48.120;11.488;2022-08-01T08:39:59;95530.94;;;25.39;44.43
1029;BME280;503;48.120;11.488;2022-08-01T08:42:25;95473.38;;;25.27;44.57
1029;BME280;503;48.120;11.488;2022-08-01T08:44:50;95533.19;;;26.05;43.50
1029;BME280;503;48.120;11.488;2022-08-01T08:47:17;95506.41;;;26.77;41.38
1029;BME280;503;48.120;11.488;2022-08-01T08:49:44;95537.75;;;27.07;40.99
1029;BME280;503;48.120;11.488;2022-08-01T08:52:10;95496.84;;;26.37;41.68
1029;BME280;503;48.120;11.488;2022-08-01T08:54:37;95512.47;;;27.03;41.10
1029;BME280;503;48.120;11.488;2022-08-01T08:57:03;95544.81;;;26.27;42.50
1029;BME280;503;48.120;11.488;2022-08-01T08:59:30;95527.81;;;25.37;43.30
1029;BME280;503;48.120;11.488;2022-08-01T09:01:57;95537.25;;;26.67;41.82
1029;BME280;503;48.120;11.488;2022-08-01T09:04:23;95483.78;;;25.96;41.78
1029;BME280;503;48.120;11.488;2022-08-01T09:06:49;95524.56;;;26.21;42.01
1029;BME280;503;48.120;11.488;2022-08-01T09:09:14;95527.72;;;26.12;41.54
1029;BME280;503;48.120;11.488;2022-08-01T09:11:39;95518.63;;;26.40;41.03
1029;BME280;503;48.120;11.488;2022-08-01T09:14:15;95529.94;;;26.39;41.26
1029;BME280;503;48.120;11.488;2022-08-01T09:17:02;95532.09;;;26.76;41.70
1029;BME280;503;48.120;11.488;2022-08-01T09:19:39;95534.28;;;27.10;40.55
1029;BME280;503;48.120;11.488;2022-08-01T09:22:07;95513.69;;;27.43;39.67
1029;BME280;503;48.120;11.488;2022-08-01T09:24:33;95512.38;;;27.17;39.22
1029;BME280;503;48.120;11.488;2022-08-01T09:26:59;95516.25;;;28.06;38.40
1029;BME280;503;48.120;11.488;2022-08-01T09:29:30;95520.31;;;27.90;37.57
1029;BME280;503;48.120;11.488;2022-08-01T09:31:58;95532.72;;;27.05;39.10
1029;BME280;503;48.120;11.488;2022-08-01T09:34:29;95531.34;;;27.38;38.13
1029;BME280;503;48.120;11.488;2022-08-01T09:37:00;95527.50;;;28.11;37.69
1029;BME280;503;48.120;11.488;2022-08-01T09:41:53;95498.00;;;27.06;39.16
1029;BME280;503;48.120;11.488;2022-08-01T09:44:25;95524.25;;;26.85;39.03
1029;BME280;503;48.120;11.488;2022-08-01T09:47:00;95520.75;;;27.44;38.27
1029;BME280;503;48.120;11.488;2022-08-01T09:49:31;95517.09;;;27.13;40.27
1029;BME280;503;48.120;11.488;2022-08-01T09:51:58;95533.00;;;26.62;39.63
1029;BME280;503;48.120;11.488;2022-08-01T09:54:30;95515.78;;;26.69;39.87
1029;BME280;503;48.120;11.488;2022-08-01T09:57:07;95501.91;;;27.08;39.80
1029;BME280;503;48.120;11.488;2022-08-01T09:59:37;95509.28;;;27.60;38.75
1029;BME280;503;48.120;11.488;2022-08-01T10:02:05;95512.81;;;27.57;38.22
1029;BME280;503;48.120;11.488;2022-08-01T10:04:31;95514.63;;;27.29;38.51
1029;BME280;503;48.120;11.488;2022-08-01T10:07:04;95521.13;;;27.87;38.26
1029;BME280;503;48.120;11.488;2022-08-01T10:09:32;95526.03;;;28.41;36.87
1029;BME280;503;48.120;11.488;2022-08-01T10:11:58;95522.84;;;27.67;38.08
1029;BME280;503;48.120;11.488;2022-08-01T10:14:25;95514.56;;;27.36;38.05
1029;BME280;503;48.120;11.488;2022-08-01T10:16:52;95514.34;;;27.99;37.50
1029;BME280;503;48.120;11.488;2022-08-01T10:19:21;95492.66;;;28.49;36.51
1029;BME280;503;48.120;11.488;2022-08-01T10:21:47;95445.22;;;27.98;36.30
1029;BME280;503;48.120;11.488;2022-08-01T10:24:16;95507.28;;;28.05;37.66
1029;BME280;503;48.120;11.488;2022-08-01T10:26:43;95503.56;;;28.19;36.45
1029;BME280;503;48.120;11.488;2022-08-01T10:29:09;95513.50;;;28.06;37.40
1029;BME280;503;48.120;11.488;2022-08-01T10:31:37;95499.22;;;27.91;36.62
1029;BME280;503;48.120;11.488;2022-08-01T10:34:03;95501.53;;;27.92;36.54
1029;BME280;503;48.120;11.488;2022-08-01T10:36:29;95515.53;;;27.98;37.27
1029;BME280;503;48.120;11.488;2022-08-01T10:38:56;95497.94;;;28.64;36.66
1029;BME280;503;48.120;11.488;2022-08-01T10:41:24;95497.19;;;28.29;37.31
1029;BME280;503;48.120;11.488;2022-08-01T10:43:49;95455.13;;;28.19;36.48
1029;BME280;503;48.120;11.488;2022-08-01T10:46:18;95495.84;;;28.75;35.99
1029;BME280;503;48.120;11.488;2022-08-01T10:49:02;95491.84;;;27.84;36.65
1029;BME280;503;48.120;11.488;2022-08-01T10:51:28;95503.63;;;27.81;37.42
1029;BME280;503;48.120;11.488;2022-08-01T10:53:54;95479.66;;;27.92;36.66
1029;BME280;503;48.120;11.488;2022-08-01T10:56:21;95470.94;;;29.43;37.16
1029;BME280;503;48.120;11.488;2022-08-01T10:58:47;95488.94;;;28.94;35.60
1029;BME280;503;48.120;11.488;2022-08-01T11:01:20;95491.56;;;28.43;35.16
1029;BME280;503;48.120;11.488;2022-08-01T11:06:38;95474.56;;;29.13;34.30
1029;BME280;503;48.120;11.488;2022-08-01T11:09:37;95487.31;;;28.42;35.51
1029;BME280;503;48.120;11.488;2022-08-01T11:12:11;95476.09;;;28.33;36.52
1029;BME280;503;48.120;11.488;2022-08-01T11:20:11;95483.78;;;28.08;36.54
1029;BME280;503;48.120;11.488;2022-08-01T11:30:53;95460.56;;;29.31;33.90
1029;BME280;503;48.120;11.488;2022-08-01T11:47:01;95457.72;;;29.38;33.66
1029;BME280;503;48.120;11.488;2022-08-01T11:54:45;95446.13;;;28.76;34.15
1029;BME280;503;48.120;11.488;2022-08-01T11:57:14;95449.75;;;28.97;34.64
1029;BME280;503;48.120;11.488;2022-08-01T11:59:47;95435.66;;;29.22;33.15
1029;BME280;503;48.120;11.488;2022-08-01T12:02:34;95448.47;;;29.05;32.52
1029;BME280;503;48.120;11.488;2022-08-01T12:05:11;95420.03;;;29.66;31.85
1029;BME280;503;48.120;11.488;2022-08-01T12:07:42;95427.38;;;30.09;31.00
1029;BME280;503;48.120;11.488;2022-08-01T12:10:12;95442.25;;;29.91;31.00
1029;BME280;503;48.120;11.488;2022-08-01T12:12:45;95375.69;;;28.81;31.83
1029;BME280;503;48.120;11.488;2022-08-01T12:15:12;95449.34;;;30.09;30.68
1029;BME280;503;48.120;11.488;2022-08-01T12:17:39;95377.44;;;29.18;31.38
1029;BME280;503;48.120;11.488;2022-08-01T12:20:09;95415.22;;;30.29;30.02
1029;BME280;503;48.120;11.488;2022-08-01T12:22:35;95400.34;;;29.91;30.55
1029;BME280;503;48.120;11.488;2022-08-01T12:27:34;95386.28;;;29.25;29.93
1029;BME280;503;48.120;11.488;2022-08-01T12:30:00;95387.16;;;29.42;29.52
1029;BME280;503;48.120;11.488;2022-08-01T12:32:32;95409.69;;;29.73;30.38
1029;BME280;503;48.120;11.488;2022-08-01T12:35:09;95405.19;;;29.63;30.49
1029;BME280;503;48.120;11.488;2022-08-01T12:37:42;95416.41;;;29.49;30.47
1029;BME280;503;48.120;11.488;2022-08-01T12:40:30;95418.59;;;29.97;29.79
1029;BME280;503;48.120;11.488;2022-08-01T12:43:01;95420.31;;;30.47;28.92
1029;BME280;503;48.120;11.488;2022-08-01T12:45:29;95413.84;;;30.90;28.73
1029;BME280;503;48.120;11.488;2022-08-01T12:47:55;95398.97;;;31.20;28.19
1029;BME280;503;48.120;11.488;2022-08-01T12:50:25;95392.91;;;30.80;27.53
1029;BME280;503;48.120;11.488;2022-08-01T12:52:53;95391.13;;;31.51;27.22
1029;BME280;503;48.120;11.488;2022-08-01T12:55:23;95362.63;;;32.42;25.88
1029;BME280;503;48.120;11.488;2022-08-01T12:58:08;95347.09;;;30.77;27.49
1029;BME280;503;48.120;11.488;2022-08-01T13:00:36;95362.34;;;30.62;27.72
1029;BME280;503;48.120;11.488;2022-08-01T13:03:07;95325.19;;;29.68;28.12
1029;BME280;503;48.120;11.488;2022-08-01T13:05:43;95406.38;;;30.22;28.69
1029;BME280;503;48.120;11.488;2022-08-01T13:08:11;95376.72;;;30.49;29.08
1029;BME280;503;48.120;11.488;2022-08-01T13:10:37;95306.78;;;29.49;28.69
1029;BME280;503;48.120;11.488;2022-08-01T13:13:03;95330.34;;;29.66;29.23
1029;BME280;503;48.120;11.488;2022-08-01T13:15:31;95286.34;;;29.54;29.14
1029;BME280;503;48.120;11.488;2022-08-01T13:17:58;95357.84;;;29.39;30.59
1029;BME280;503;48.120;11.488;2022-08-01T13:20:29;95433.06;;;28.34;33.88
1029;BME280;503;48.120;11.488;2022-08-01T13:23:10;95421.31;;;28.37;34.31
1029;BME280;503;48.120;11.488;2022-08-01T13:25:46;95308.69;;;27.84;35.36
1029;BME280;503;48.120;11.488;2022-08-01T13:28:19;95426.38;;;29.16;34.16
1029;BME280;503;48.120;11.488;2022-08-01T13:31:04;95282.72;;;27.69;35.17
1029;BME280;503;48.120;11.488;2022-08-01T13:33:41;95319.22;;;28.16;34.76
1029;BME280;503;48.120;11.488;2022-08-01T13:36:07;95389.22;;;28.10;36.27
1029;BME280;503;48.120;11.488;2022-08-01T13:38:32;95295.38;;;27.25;36.68
1029;BME280;503;48.120;11.488;2022-08-01T13:41:17;95324.63;;;27.28;36.44
1029;BME280;503;48.120;11.488;2022-08-01T13:43:42;95357.50;;;27.52;35.18
1029;BME280;503;48.120;11.488;2022-08-01T13:46:07;95296.25;;;26.77;36.25
1029;BME280;503;48.120;11.488;2022-08-01T13:48:33;95351.44;;;27.37;35.45
1029;BME280;503;48.120;11.488;2022-08-01T13:50:59;95410.84;;;28.28;34.29
1029;BME280;503;48.120;11.488;2022-08-01T13:53:24;95357.50;;;28.43;34.13
1029;BME280;503;48.120;11.488;2022-08-01T13:55:50;95429.34;;;28.51;34.05
1029;BME280;503;48.120;11.488;2022-08-01T13:58:15;95429.34;;;28.51;33.81
1029;BME280;503;48.120;11.488;2022-08-01T14:00:41;95342.75;;;28.10;33.63
1029;BME280;503;48.120;11.488;2022-08-01T14:03:07;95322.34;;;28.65;33.00
1029;BME280;503;48.120;11.488;2022-08-01T14:05:35;95440.06;;;28.38;34.02
1029;BME280;503;48.120;11.488;2022-08-01T14:08:00;95419.25;;;28.14;35.47
1029;BME280;503;48.120;11.488;2022-08-01T14:10:26;95406.41;;;26.98;38.08